McCaulley, Texas
Current Conditions -  °F | °C
As of 9:55 AM on Thursday 27 Nov 2014 (Local Time) from KSWW Reporting Station
Clear Clear  
Wind Chill:   Ceiling: Unl
Heat Index:   Visibility: 10mi
Dew Point: -3°   Wind: 7mph
Humidity: 45%   Direction: 110°ESE
Pressure: 30.55"   Gusts: NA
Location:  32.78°N, 100.21°W
Report Text: KSWW 271555Z AUTO 11006KT 10SM CLR 08/M03 A3055 RMK AO2 T00791033
Loading
Personal Weather Stations






























Interactive Weather Map New forecast layout! Learn more

10-Day Weather Forecast

Advertisements
Track Severe Weather on mobile